createdAt,value
2022-10-10T00:00:23.875Z,101773.84
2022-10-10T00:04:46.476Z,101773.84
2022-10-10T00:08:48.539Z,101768.69
2022-10-10T00:12:50.818Z,101772.19
2022-10-10T00:16:52.686Z,101762.72
2022-10-10T00:20:54.505Z,101763.69
2022-10-10T00:24:56.133Z,101763.66
2022-10-10T00:28:58.355Z,101776.59
2022-10-10T00:33:00.607Z,101774.88
2022-10-10T00:37:03.514Z,101776.50
2022-10-10T00:41:05.802Z,101774.78
2022-10-10T00:45:30.942Z,101774.75
2022-10-10T00:49:36.531Z,101761.88
2022-10-10T00:53:45.034Z,101762.84
2022-10-10T00:57:46.940Z,101756.84
2022-10-10T01:01:48.875Z,101746.44
2022-10-10T01:05:51.313Z,101756.94
2022-10-10T01:09:56.569Z,101750.94
2022-10-10T01:14:13.350Z,101751.84
2022-10-10T01:18:28.466Z,101760.53
2022-10-10T01:22:40.389Z,101753.66
2022-10-10T01:27:08.348Z,101760.63
2022-10-10T01:31:13.896Z,101754.56
2022-10-10T01:35:39.117Z,101756.28
2022-10-10T01:39:56.786Z,101760.66
2022-10-10T01:43:59.545Z,101753.75
2022-10-10T01:48:07.113Z,101750.31
2022-10-10T01:52:43.965Z,101747.75
2022-10-10T01:56:56.664Z,101752.94
2022-10-10T02:01:08.109Z,101752.06
2022-10-10T02:05:20.170Z,101746.94
2022-10-10T02:09:32.104Z,101756.41
2022-10-10T02:13:44.307Z,101757.31
2022-10-10T02:17:48.143Z,101752.13
2022-10-10T02:21:52.317Z,101753.00
2022-10-10T02:25:56.733Z,101751.25
2022-10-10T02:30:02.465Z,101748.66
2022-10-10T02:34:11.811Z,101755.53
2022-10-10T02:38:15.371Z,101763.31
2022-10-10T02:42:20.712Z,101776.25
2022-10-10T02:46:23.148Z,101773.63
2022-10-10T02:50:26.630Z,101770.19
2022-10-10T02:54:28.377Z,101765.81
2022-10-10T02:58:30.601Z,101761.47
2022-10-10T03:02:33.127Z,101763.25
2022-10-10T03:06:35.199Z,101764.97
2022-10-10T03:10:37.045Z,101760.63
2022-10-10T03:14:39.144Z,101751.09
2022-10-10T03:18:42.139Z,101757.19
2022-10-10T03:29:40.097Z,101764.88
2022-10-10T03:33:42.159Z,101760.59
2022-10-10T03:37:43.822Z,101768.38
2022-10-10T03:41:45.774Z,101770.94
2022-10-10T03:45:50.035Z,101771.00
2022-10-10T03:49:51.786Z,101782.22
2022-10-10T03:53:54.514Z,101773.59
2022-10-10T03:57:56.382Z,101762.41
2022-10-10T04:01:58.575Z,101770.19
2022-10-10T04:06:00.503Z,101760.66
2022-10-10T04:10:03.125Z,101763.31
2022-10-10T04:14:04.908Z,101750.34
2022-10-10T04:18:07.695Z,101744.25
2022-10-10T04:22:11.265Z,101746.84
2022-10-10T04:26:13.167Z,101749.44
2022-10-10T04:30:15.363Z,101749.34
2022-10-10T04:34:17.321Z,101746.75
2022-10-10T04:38:21.286Z,101746.75
2022-10-10T04:42:23.417Z,101759.72
2022-10-10T04:46:25.238Z,101750.25
2022-10-10T04:50:27.329Z,101753.69
2022-10-10T04:54:29.426Z,101747.59
2022-10-10T04:58:31.585Z,101735.50
2022-10-10T05:02:33.374Z,101732.88
2022-10-10T05:06:35.511Z,101726.81
2022-10-10T05:10:40.963Z,101731.19
2022-10-10T05:14:47.298Z,101742.38
2022-10-10T05:18:50.116Z,101738.06
2022-10-10T05:22:52.202Z,101741.59
2022-10-10T05:26:54.293Z,101740.69
2022-10-10T05:30:56.216Z,101745.00
2022-10-10T05:34:58.081Z,101740.69
2022-10-10T05:39:01.209Z,101745.84
2022-10-10T05:43:03.092Z,101739.81
2022-10-10T05:47:04.842Z,101743.28
2022-10-10T05:51:07.661Z,101735.44
2022-10-10T05:55:09.531Z,101728.47
2022-10-10T05:59:11.363Z,101729.38
2022-10-10T06:03:16.814Z,101734.56
2022-10-10T06:07:18.844Z,101740.56
2022-10-10T06:11:22.788Z,101738.69
2022-10-10T06:15:24.748Z,101733.47
2022-10-10T06:19:26.451Z,101725.53
2022-10-10T06:23:29.048Z,101728.09
2022-10-10T06:27:30.768Z,101722.88
2022-10-10T06:31:32.616Z,101728.81
2022-10-10T06:35:38.179Z,101739.06
2022-10-10T06:39:40.116Z,101740.69
2022-10-10T06:43:41.946Z,101739.63
2022-10-10T06:47:43.808Z,101748.97
2022-10-10T06:51:45.465Z,101746.28
2022-10-10T06:55:47.833Z,101739.94
2022-10-10T06:59:49.504Z,101739.75
2022-10-10T07:03:51.982Z,101737.16
2022-10-10T07:07:53.934Z,101725.69
2022-10-10T07:11:55.806Z,101721.84
2022-10-10T07:15:57.674Z,101729.44
2022-10-10T07:19:59.661Z,101721.47
2022-10-10T07:24:01.493Z,101722.69
2022-10-10T07:28:03.315Z,101724.16
2022-10-10T07:32:05.284Z,101720.34
2022-10-10T07:36:07.939Z,101719.84
2022-10-10T07:40:09.792Z,101712.75
2022-10-10T07:44:11.639Z,101708.06
2022-10-10T07:48:13.381Z,101701.72
2022-10-10T07:52:15.214Z,101705.28
2022-10-10T07:56:16.933Z,101703.88
2022-10-10T08:00:18.845Z,101710.31
2022-10-10T08:04:21.642Z,101698.44
2022-10-10T08:08:23.639Z,101687.31
2022-10-10T08:12:25.496Z,101677.09
2022-10-10T08:16:27.686Z,101669.81
2022-10-10T08:20:29.392Z,101657.69
2022-10-10T08:24:31.477Z,101640.16
2022-10-10T08:28:34.444Z,101622.84
2022-10-10T08:32:36.438Z,101592.31
2022-10-10T08:36:38.734Z,101586.66
2022-10-10T08:40:46.955Z,101570.53
2022-10-10T08:44:55.461Z,101577.28
2022-10-10T08:49:01.154Z,101571.25
2022-10-10T08:53:43.803Z,101572.50
2022-10-10T08:57:51.175Z,101571.91
2022-10-10T09:02:17.959Z,101592.03
2022-10-10T09:06:59.521Z,101598.59
2022-10-10T09:11:33.725Z,101591.91
2022-10-10T09:15:45.721Z,101611.31
2022-10-10T09:20:03.232Z,101627.34
2022-10-10T09:24:19.867Z,101642.53
2022-10-10T09:28:44.166Z,101653.44
2022-10-10T09:32:51.838Z,101645.63
2022-10-10T09:36:58.495Z,101653.47
2022-10-10T09:41:13.471Z,101649.19
2022-10-10T09:45:26.476Z,101655.09
2022-10-10T09:49:29.749Z,101651.28
2022-10-10T09:53:31.573Z,101653.50
2022-10-10T09:57:39.128Z,101643.72
2022-10-10T10:01:40.989Z,101646.69
2022-10-10T10:06:00.929Z,101649.69
2022-10-10T10:10:17.263Z,101648.94
2022-10-10T10:14:28.494Z,101644.16
2022-10-10T10:18:31.210Z,101640.59
2022-10-10T10:22:40.636Z,101645.41
2022-10-10T10:26:47.579Z,101637.09
2022-10-10T10:30:56.625Z,101633.06
2022-10-10T10:35:03.999Z,101627.59
2022-10-10T10:39:53.948Z,101620.09
2022-10-10T10:44:26.679Z,101608.00
2022-10-10T10:48:39.188Z,101596.59
2022-10-10T10:53:22.811Z,101609.91
2022-10-10T10:57:51.605Z,101593.97
2022-10-10T11:02:54.166Z,101594.47
2022-10-10T11:07:17.095Z,101581.91
2022-10-10T11:11:21.748Z,101580.50
2022-10-10T11:20:15.458Z,101567.63
2022-10-10T11:24:32.536Z,101564.34
2022-10-10T11:28:49.148Z,101557.34
2022-10-10T11:33:09.979Z,101552.97
2022-10-10T11:37:19.506Z,101549.16
2022-10-10T11:41:31.704Z,101549.06
2022-10-10T11:45:39.236Z,101537.59
2022-10-10T11:49:55.664Z,101533.84
2022-10-10T11:54:04.603Z,101528.19
2022-10-10T11:58:06.530Z,101514.47
2022-10-10T12:02:30.334Z,101522.31
2022-10-10T12:06:47.914Z,101506.91
2022-10-10T12:10:55.354Z,101505.69
2022-10-10T12:15:02.107Z,101490.53
2022-10-10T12:19:15.232Z,101483.81
2022-10-10T12:23:31.382Z,101472.34
2022-10-10T12:28:00.922Z,101460.66
2022-10-10T12:32:14.863Z,101455.41
2022-10-10T12:42:48.576Z,101432.28
2022-10-10T12:47:15.376Z,101421.84
2022-10-10T12:51:21.311Z,101419.97
2022-10-10T12:55:30.569Z,101411.13
2022-10-10T12:59:36.461Z,101411.03
2022-10-10T13:03:44.509Z,101398.31
2022-10-10T13:07:48.771Z,101393.38
2022-10-10T13:11:59.291Z,101393.94
2022-10-10T13:16:13.589Z,101381.53
2022-10-10T13:20:32.840Z,101372.09
2022-10-10T13:24:35.370Z,101374.09
2022-10-10T13:28:37.296Z,101354.50
2022-10-10T13:32:39.110Z,101352.91
2022-10-10T13:36:41.491Z,101349.41
2022-10-10T13:40:44.705Z,101346.41
2022-10-10T13:44:50.227Z,101333.25
2022-10-10T13:48:52.043Z,101333.91
2022-10-10T13:53:25.476Z,101325.22
2022-10-10T13:57:27.813Z,101326.22
2022-10-10T14:01:54.650Z,101314.88
2022-10-10T14:05:56.960Z,101303.97
2022-10-10T14:10:04.718Z,101306.09
2022-10-10T14:14:32.364Z,101305.47
2022-10-10T14:18:34.130Z,101295.19
2022-10-10T14:22:35.810Z,101297.53
2022-10-10T14:26:37.942Z,101293.50
2022-10-10T14:30:39.964Z,101291.97
2022-10-10T14:34:42.441Z,101289.53
2022-10-10T14:39:13.142Z,101285.78
2022-10-10T14:43:16.797Z,101284.22
2022-10-10T14:47:23.937Z,101284.06
2022-10-10T14:51:34.821Z,101274.84
2022-10-10T14:55:37.579Z,101271.00
2022-10-10T14:59:47.684Z,101273.84
2022-10-10T15:03:51.828Z,101269.97
2022-10-10T15:07:53.853Z,101270.22
2022-10-10T15:11:55.659Z,101267.75
2022-10-10T15:15:57.695Z,101265.41
2022-10-10T15:19:59.429Z,101258.09
2022-10-10T15:24:01.235Z,101259.16
2022-10-10T15:28:03.583Z,101248.66
2022-10-10T15:32:05.717Z,101251.53
2022-10-10T15:36:10.429Z,101247.53
2022-10-10T15:40:17.444Z,101238.06
2022-10-10T15:44:19.261Z,101234.50
2022-10-10T15:48:21.155Z,101240.53
2022-10-10T15:52:23.297Z,101237.59
2022-10-10T15:56:25.752Z,101234.69
2022-10-10T16:00:27.631Z,101235.25
2022-10-10T16:04:29.548Z,101233.78
2022-10-10T16:08:31.276Z,101217.78
2022-10-10T16:12:33.119Z,101215.44
2022-10-10T16:16:35.014Z,101212.81
2022-10-10T16:20:38.970Z,101218.97
2022-10-10T16:24:40.800Z,101212.13
2022-10-10T16:28:43.445Z,101215.19
2022-10-10T16:32:45.164Z,101207.44
2022-10-10T16:36:46.990Z,101194.88
2022-10-10T16:40:48.860Z,101183.22
2022-10-10T16:44:50.743Z,101183.16
2022-10-10T16:48:52.760Z,101165.13
2022-10-10T16:52:54.589Z,101155.34
2022-10-10T16:56:56.302Z,101146.72
2022-10-10T17:01:01.246Z,101137.66
2022-10-10T17:05:06.287Z,101130.47
2022-10-10T17:09:09.861Z,101119.97
2022-10-10T17:13:11.608Z,101120.06
2022-10-10T17:17:14.020Z,101106.88
2022-10-10T17:21:18.468Z,101109.91
2022-10-10T17:25:20.228Z,101106.47
2022-10-10T17:29:23.678Z,101095.69
2022-10-10T17:33:25.613Z,101090.50
2022-10-10T17:37:27.314Z,101084.19
2022-10-10T17:41:29.950Z,101077.97
2022-10-10T17:45:33.920Z,101074.50
2022-10-10T17:49:36.092Z,101076.25
2022-10-10T17:53:38.362Z,101075.47
2022-10-10T17:57:40.142Z,101072.28
2022-10-10T18:01:42.026Z,101079.56
2022-10-10T18:05:44.171Z,101072.72
2022-10-10T18:09:46.432Z,101063.34
2022-10-10T18:13:48.253Z,101059.06
2022-10-10T18:17:49.978Z,101053.41
2022-10-10T18:21:52.213Z,101048.44
2022-10-10T18:26:05.989Z,101054.59
2022-10-10T18:30:08.327Z,101046.00
2022-10-10T18:34:11.579Z,101051.38
2022-10-10T18:38:13.346Z,101042.69
2022-10-10T18:42:15.118Z,101032.69
2022-10-10T18:46:19.881Z,101016.94
2022-10-10T18:50:21.585Z,101010.06
2022-10-10T18:54:23.565Z,101022.19
2022-10-10T18:58:25.319Z,101015.25
2022-10-10T19:02:27.214Z,101005.03
2022-10-10T19:06:29.118Z,101011.78
2022-10-10T19:10:30.903Z,101006.34
2022-10-10T19:14:32.744Z,101007.31
2022-10-10T19:18:35.068Z,101004.88
2022-10-10T19:22:36.784Z,100993.84
2022-10-10T19:26:38.993Z,100992.25
2022-10-10T19:30:43.775Z,100985.34
2022-10-10T19:34:46.123Z,100980.63
2022-10-10T19:38:48.023Z,100972.38
2022-10-10T19:42:50.022Z,100963.22
2022-10-10T19:46:53.382Z,100961.69
2022-10-10T19:50:55.223Z,100951.41
2022-10-10T19:54:56.960Z,100950.84
2022-10-10T19:59:00.735Z,100941.59
2022-10-10T20:03:02.393Z,100942.78
2022-10-10T20:07:04.272Z,100934.88
2022-10-10T20:11:06.323Z,100936.75
2022-10-10T20:15:08.492Z,100929.69
2022-10-10T20:19:10.209Z,100932.78
2022-10-10T20:23:12.908Z,100928.56
2022-10-10T20:27:14.757Z,100932.09
2022-10-10T20:31:28.958Z,100924.44
2022-10-10T20:35:33.217Z,100923.91
2022-10-10T20:39:35.087Z,100920.19
2022-10-10T20:43:38.285Z,100919.25
2022-10-10T20:47:40.137Z,100917.72
2022-10-10T20:51:42.375Z,100920.50
2022-10-10T20:55:44.244Z,100914.59
2022-10-10T20:59:46.025Z,100918.69
2022-10-10T21:03:48.469Z,100910.50
2022-10-10T21:07:50.398Z,100907.63
2022-10-10T21:11:52.372Z,100897.81
2022-10-10T21:15:54.313Z,100902.41
2022-10-10T21:19:56.746Z,100893.38
2022-10-10T21:23:58.771Z,100894.06
2022-10-10T21:28:00.593Z,100887.59
2022-10-10T21:32:02.390Z,100881.44
2022-10-10T21:36:04.593Z,100883.97
2022-10-10T21:40:07.073Z,100877.13
2022-10-10T21:44:10.358Z,100877.97
2022-10-10T21:48:12.853Z,100877.25
2022-10-10T21:52:14.672Z,100868.66
2022-10-10T21:56:17.490Z,100874.06
2022-10-10T22:00:20.042Z,100869.09
2022-10-10T22:04:25.466Z,100872.25
2022-10-10T22:08:30.096Z,100861.25
2022-10-10T22:12:32.039Z,100866.59
2022-10-10T22:16:34.691Z,100866.59
2022-10-10T22:20:37.335Z,100857.97
2022-10-10T22:24:39.375Z,100854.34
2022-10-10T22:28:41.312Z,100850.44
2022-10-10T22:32:43.386Z,100846.22
2022-10-10T22:36:45.187Z,100844.38
2022-10-10T22:40:47.465Z,100840.19
2022-10-10T22:44:49.272Z,100830.59
2022-10-10T22:48:51.113Z,100830.38
2022-10-10T22:52:52.763Z,100829.97
2022-10-10T22:56:54.823Z,100821.91
2022-10-10T23:00:56.649Z,100833.78
2022-10-10T23:04:59.511Z,100828.22
2022-10-10T23:09:01.404Z,100820.50
2022-10-10T23:13:03.415Z,100819.59
2022-10-10T23:17:05.589Z,100820.22
2022-10-10T23:21:07.580Z,100826.94
2022-10-10T23:25:09.290Z,100824.41
2022-10-10T23:29:11.064Z,100820.16
2022-10-10T23:33:13.979Z,100818.13
2022-10-10T23:37:15.789Z,100807.00
2022-10-10T23:41:17.519Z,100808.66
2022-10-10T23:45:20.280Z,100802.81
2022-10-10T23:49:21.919Z,100797.84
2022-10-10T23:53:23.755Z,100796.44
2022-10-10T23:57:25.547Z,100791.84
